sensor_id;sensor_type;location;lat;lon;timestamp;P1;durP1;ratioP1;P2;durP2;ratioP2
5117;SDS011;2578;51.622;7.046;2023-06-24T00:00:13;3.50;;;2.00;;
5117;SDS011;2578;51.622;7.046;2023-06-24T00:02:45;3.80;;;2.60;;
5117;SDS011;2578;51.622;7.046;2023-06-24T00:05:19;3.47;;;2.30;;
5117;SDS011;2578;51.622;7.046;2023-06-24T00:07:48;3.50;;;2.10;;
5117;SDS011;2578;51.622;7.046;2023-06-24T00:10:14;5.10;;;2.93;;
5117;SDS011;2578;51.622;7.046;2023-06-24T00:13:09;4.13;;;3.40;;
5117;SDS011;2578;51.622;7.046;2023-06-24T00:15:38;3.50;;;2.13;;
5117;SDS011;2578;51.622;7.046;2023-06-24T00:18:07;3.50;;;2.13;;
5117;SDS011;2578;51.622;7.046;2023-06-24T00:20:36;3.60;;;2.10;;
5117;SDS011;2578;51.622;7.046;2023-06-24T00:23:11;3.97;;;2.77;;
5117;SDS011;2578;51.622;7.046;2023-06-24T00:25:41;3.67;;;2.30;;
5117;SDS011;2578;51.622;7.046;2023-06-24T00:28:13;4.00;;;2.97;;
5117;SDS011;2578;51.622;7.046;2023-06-24T00:30:38;3.80;;;2.70;;
5117;SDS011;2578;51.622;7.046;2023-06-24T00:33:04;3.60;;;2.30;;
5117;SDS011;2578;51.622;7.046;2023-06-24T00:35:39;5.97;;;4.10;;
5117;SDS011;2578;51.622;7.046;2023-06-24T00:38:06;3.70;;;2.40;;
5117;SDS011;2578;51.622;7.046;2023-06-24T00:40:31;3.63;;;2.20;;
5117;SDS011;2578;51.622;7.046;2023-06-24T00:42:58;3.73;;;2.27;;
5117;SDS011;2578;51.622;7.046;2023-06-24T00:45:24;3.53;;;2.30;;
5117;SDS011;2578;51.622;7.046;2023-06-24T00:47:52;3.70;;;2.40;;
5117;SDS011;2578;51.622;7.046;2023-06-24T00:50:24;3.70;;;2.30;;
5117;SDS011;2578;51.622;7.046;2023-06-24T00:52:56;3.60;;;2.20;;
5117;SDS011;2578;51.622;7.046;2023-06-24T00:55:24;3.63;;;2.30;;
5117;SDS011;2578;51.622;7.046;2023-06-24T00:57:54;3.73;;;2.60;;
5117;SDS011;2578;51.622;7.046;2023-06-24T01:00:21;3.57;;;2.30;;
5117;SDS011;2578;51.622;7.046;2023-06-24T01:02:47;3.60;;;2.30;;
5117;SDS011;2578;51.622;7.046;2023-06-24T01:05:14;3.60;;;2.30;;
5117;SDS011;2578;51.622;7.046;2023-06-24T01:07:41;3.60;;;2.33;;
5117;SDS011;2578;51.622;7.046;2023-06-24T01:10:19;3.53;;;2.30;;
5117;SDS011;2578;51.622;7.046;2023-06-24T01:12:48;3.70;;;2.40;;
5117;SDS011;2578;51.622;7.046;2023-06-24T01:15:14;3.70;;;2.40;;
5117;SDS011;2578;51.622;7.046;2023-06-24T01:26:57;8.10;;;4.50;;
5117;SDS011;2578;51.622;7.046;2023-06-24T01:29:41;3.80;;;2.80;;
5117;SDS011;2578;51.622;7.046;2023-06-24T01:32:34;3.80;;;2.60;;
5117;SDS011;2578;51.622;7.046;2023-06-24T01:35:10;3.77;;;2.50;;
5117;SDS011;2578;51.622;7.046;2023-06-24T01:37:44;3.80;;;2.60;;
5117;SDS011;2578;51.622;7.046;2023-06-24T01:42:50;3.70;;;2.70;;
5117;SDS011;2578;51.622;7.046;2023-06-24T01:45:20;3.90;;;2.80;;
5117;SDS011;2578;51.622;7.046;2023-06-24T01:48:02;3.90;;;2.90;;
5117;SDS011;2578;51.622;7.046;2023-06-24T01:50:34;3.80;;;2.90;;
5117;SDS011;2578;51.622;7.046;2023-06-24T01:53:19;3.90;;;2.90;;
5117;SDS011;2578;51.622;7.046;2023-06-24T01:55:48;3.90;;;2.80;;
5117;SDS011;2578;51.622;7.046;2023-06-24T01:58:14;3.80;;;2.80;;
5117;SDS011;2578;51.622;7.046;2023-06-24T02:00:42;3.73;;;2.70;;
5117;SDS011;2578;51.622;7.046;2023-06-24T02:03:08;4.17;;;3.00;;
5117;SDS011;2578;51.622;7.046;2023-06-24T02:05:38;3.90;;;2.90;;
5117;SDS011;2578;51.622;7.046;2023-06-24T02:08:09;3.83;;;3.00;;
5117;SDS011;2578;51.622;7.046;2023-06-24T02:10:39;3.83;;;3.00;;
5117;SDS011;2578;51.622;7.046;2023-06-24T02:13:05;3.90;;;3.20;;
5117;SDS011;2578;51.622;7.046;2023-06-24T02:15:34;4.10;;;3.50;;
5117;SDS011;2578;51.622;7.046;2023-06-24T02:18:04;4.00;;;3.23;;
5117;SDS011;2578;51.622;7.046;2023-06-24T02:20:31;4.20;;;3.60;;
5117;SDS011;2578;51.622;7.046;2023-06-24T02:22:57;3.93;;;3.20;;
5117;SDS011;2578;51.622;7.046;2023-06-24T02:25:25;4.20;;;3.70;;
5117;SDS011;2578;51.622;7.046;2023-06-24T02:27:52;4.00;;;3.20;;
5117;SDS011;2578;51.622;7.046;2023-06-24T02:30:22;3.90;;;3.00;;
5117;SDS011;2578;51.622;7.046;2023-06-24T02:32:52;5.70;;;4.20;;
5117;SDS011;2578;51.622;7.046;2023-06-24T02:35:19;4.00;;;3.30;;
5117;SDS011;2578;51.622;7.046;2023-06-24T02:37:44;4.00;;;3.30;;
5117;SDS011;2578;51.622;7.046;2023-06-24T02:40:13;3.90;;;3.20;;
5117;SDS011;2578;51.622;7.046;2023-06-24T02:42:39;4.00;;;3.33;;
5117;SDS011;2578;51.622;7.046;2023-06-24T02:45:07;5.07;;;4.57;;
5117;SDS011;2578;51.622;7.046;2023-06-24T02:47:37;3.90;;;3.10;;
5117;SDS011;2578;51.622;7.046;2023-06-24T02:50:04;3.90;;;3.10;;
5117;SDS011;2578;51.622;7.046;2023-06-24T02:52:34;3.80;;;3.00;;
5117;SDS011;2578;51.622;7.046;2023-06-24T02:55:04;3.90;;;3.10;;
5117;SDS011;2578;51.622;7.046;2023-06-24T02:57:30;3.90;;;3.10;;
5117;SDS011;2578;51.622;7.046;2023-06-24T02:59:57;3.90;;;3.20;;
5117;SDS011;2578;51.622;7.046;2023-06-24T03:02:23;3.83;;;3.30;;
5117;SDS011;2578;51.622;7.046;2023-06-24T03:04:50;4.87;;;4.37;;
5117;SDS011;2578;51.622;7.046;2023-06-24T03:07:19;4.00;;;3.50;;
5117;SDS011;2578;51.622;7.046;2023-06-24T03:09:45;5.07;;;4.57;;
5117;SDS011;2578;51.622;7.046;2023-06-24T03:12:20;3.90;;;3.40;;
5117;SDS011;2578;51.622;7.046;2023-06-24T03:14:46;3.83;;;3.00;;
5117;SDS011;2578;51.622;7.046;2023-06-24T03:17:12;3.80;;;3.00;;
5117;SDS011;2578;51.622;7.046;2023-06-24T03:19:41;3.90;;;3.30;;
5117;SDS011;2578;51.622;7.046;2023-06-24T03:22:10;4.00;;;3.57;;
5117;SDS011;2578;51.622;7.046;2023-06-24T03:24:36;8.20;;;7.40;;
5117;SDS011;2578;51.622;7.046;2023-06-24T03:27:01;3.80;;;3.37;;
5117;SDS011;2578;51.622;7.046;2023-06-24T03:29:27;3.90;;;3.20;;
5117;SDS011;2578;51.622;7.046;2023-06-24T03:31:56;3.90;;;3.10;;
5117;SDS011;2578;51.622;7.046;2023-06-24T03:34:22;3.80;;;3.00;;
5117;SDS011;2578;51.622;7.046;2023-06-24T03:36:52;3.70;;;2.67;;
5117;SDS011;2578;51.622;7.046;2023-06-24T03:39:22;3.60;;;2.60;;
5117;SDS011;2578;51.622;7.046;2023-06-24T03:41:47;3.63;;;2.50;;
5117;SDS011;2578;51.622;7.046;2023-06-24T03:44:13;3.67;;;2.50;;
5117;SDS011;2578;51.622;7.046;2023-06-24T03:46:45;3.67;;;2.50;;
5117;SDS011;2578;51.622;7.046;2023-06-24T03:49:10;6.13;;;5.53;;
5117;SDS011;2578;51.622;7.046;2023-06-24T03:51:36;3.70;;;2.60;;
5117;SDS011;2578;51.622;7.046;2023-06-24T03:54:01;3.60;;;2.50;;
5117;SDS011;2578;51.622;7.046;2023-06-24T03:56:30;3.67;;;2.50;;
5117;SDS011;2578;51.622;7.046;2023-06-24T03:58:55;3.57;;;2.20;;
5117;SDS011;2578;51.622;7.046;2023-06-24T04:01:24;3.70;;;2.63;;
5117;SDS011;2578;51.622;7.046;2023-06-24T04:03:50;3.70;;;2.70;;
5117;SDS011;2578;51.622;7.046;2023-06-24T04:06:22;4.73;;;3.17;;
5117;SDS011;2578;51.622;7.046;2023-06-24T04:08:47;3.97;;;3.10;;
5117;SDS011;2578;51.622;7.046;2023-06-24T04:11:13;3.73;;;2.70;;
5117;SDS011;2578;51.622;7.046;2023-06-24T04:13:39;4.83;;;4.33;;
5117;SDS011;2578;51.622;7.046;2023-06-24T04:16:05;7.20;;;4.10;;
5117;SDS011;2578;51.622;7.046;2023-06-24T04:18:30;3.77;;;2.80;;
5117;SDS011;2578;51.622;7.046;2023-06-24T04:20:56;3.73;;;2.80;;
5117;SDS011;2578;51.622;7.046;2023-06-24T04:23:22;3.77;;;2.80;;
5117;SDS011;2578;51.622;7.046;2023-06-24T04:25:54;3.70;;;2.73;;
5117;SDS011;2578;51.622;7.046;2023-06-24T04:28:22;4.30;;;3.90;;
5117;SDS011;2578;51.622;7.046;2023-06-24T04:30:53;4.10;;;3.10;;
5117;SDS011;2578;51.622;7.046;2023-06-24T04:33:19;3.77;;;2.80;;
5117;SDS011;2578;51.622;7.046;2023-06-24T04:35:49;3.77;;;2.80;;
5117;SDS011;2578;51.622;7.046;2023-06-24T04:38:16;3.87;;;3.00;;
5117;SDS011;2578;51.622;7.046;2023-06-24T04:40:44;3.90;;;3.37;;
5117;SDS011;2578;51.622;7.046;2023-06-24T04:43:10;3.87;;;3.20;;
5117;SDS011;2578;51.622;7.046;2023-06-24T04:45:36;3.93;;;3.50;;
5117;SDS011;2578;51.622;7.046;2023-06-24T04:48:04;4.67;;;4.17;;
5117;SDS011;2578;51.622;7.046;2023-06-24T04:50:30;4.93;;;3.73;;
5117;SDS011;2578;51.622;7.046;2023-06-24T04:52:59;6.27;;;5.63;;
5117;SDS011;2578;51.622;7.046;2023-06-24T04:55:27;5.00;;;4.30;;
5117;SDS011;2578;51.622;7.046;2023-06-24T04:57:56;5.90;;;4.90;;
5117;SDS011;2578;51.622;7.046;2023-06-24T05:00:21;7.20;;;5.63;;
5117;SDS011;2578;51.622;7.046;2023-06-24T05:02:49;5.67;;;5.17;;
5117;SDS011;2578;51.622;7.046;2023-06-24T05:05:15;5.73;;;5.23;;
5117;SDS011;2578;51.622;7.046;2023-06-24T05:07:41;5.60;;;5.10;;
5117;SDS011;2578;51.622;7.046;2023-06-24T05:10:09;4.70;;;4.30;;
5117;SDS011;2578;51.622;7.046;2023-06-24T05:12:40;3.80;;;3.00;;
5117;SDS011;2578;51.622;7.046;2023-06-24T05:15:21;3.53;;;2.30;;
5117;SDS011;2578;51.622;7.046;2023-06-24T05:17:49;8.80;;;2.83;;
5117;SDS011;2578;51.622;7.046;2023-06-24T05:20:20;4.63;;;2.93;;
5117;SDS011;2578;51.622;7.046;2023-06-24T05:22:51;4.50;;;4.10;;
5117;SDS011;2578;51.622;7.046;2023-06-24T05:25:17;5.63;;;5.13;;
5117;SDS011;2578;51.622;7.046;2023-06-24T05:27:43;6.70;;;6.20;;
5117;SDS011;2578;51.622;7.046;2023-06-24T05:30:14;7.20;;;6.70;;
5117;SDS011;2578;51.622;7.046;2023-06-24T05:32:43;6.33;;;5.83;;
5117;SDS011;2578;51.622;7.046;2023-06-24T05:35:14;6.90;;;6.40;;
5117;SDS011;2578;51.622;7.046;2023-06-24T05:37:43;7.80;;;7.30;;
5117;SDS011;2578;51.622;7.046;2023-06-24T05:40:09;8.63;;;8.03;;
5117;SDS011;2578;51.622;7.046;2023-06-24T05:42:40;8.70;;;8.10;;
5117;SDS011;2578;51.622;7.046;2023-06-24T05:45:16;7.60;;;7.10;;
5117;SDS011;2578;51.622;7.046;2023-06-24T05:47:44;8.73;;;8.13;;
5117;SDS011;2578;51.622;7.046;2023-06-24T05:50:11;10.00;;;9.40;;
5117;SDS011;2578;51.622;7.046;2023-06-24T05:52:37;11.00;;;10.30;;
5117;SDS011;2578;51.622;7.046;2023-06-24T05:55:02;11.00;;;10.30;;
5117;SDS011;2578;51.622;7.046;2023-06-24T05:57:31;11.20;;;10.50;;
5117;SDS011;2578;51.622;7.046;2023-06-24T05:59:57;10.90;;;10.20;;
5117;SDS011;2578;51.622;7.046;2023-06-24T06:02:22;11.80;;;11.10;;
5117;SDS011;2578;51.622;7.046;2023-06-24T06:04:48;13.33;;;12.53;;
5117;SDS011;2578;51.622;7.046;2023-06-24T06:07:23;13.70;;;12.60;;
5117;SDS011;2578;51.622;7.046;2023-06-24T06:09:59;12.80;;;11.73;;
5117;SDS011;2578;51.622;7.046;2023-06-24T06:12:25;13.27;;;12.37;;
5117;SDS011;2578;51.622;7.046;2023-06-24T06:14:54;13.77;;;12.63;;
5117;SDS011;2578;51.622;7.046;2023-06-24T06:17:28;11.73;;;11.03;;
5117;SDS011;2578;51.622;7.046;2023-06-24T06:19:59;11.73;;;11.00;;
5117;SDS011;2578;51.622;7.046;2023-06-24T06:22:25;12.87;;;11.97;;
5117;SDS011;2578;51.622;7.046;2023-06-24T06:24:50;13.10;;;12.30;;
5117;SDS011;2578;51.622;7.046;2023-06-24T06:27:16;14.30;;;13.40;;
5117;SDS011;2578;51.622;7.046;2023-06-24T06:29:42;15.37;;;14.27;;
5117;SDS011;2578;51.622;7.046;2023-06-24T06:32:08;14.90;;;14.00;;
5117;SDS011;2578;51.622;7.046;2023-06-24T06:34:42;14.20;;;13.30;;
5117;SDS011;2578;51.622;7.046;2023-06-24T06:37:08;14.33;;;13.33;;
5117;SDS011;2578;51.622;7.046;2023-06-24T06:39:34;14.20;;;13.30;;
5117;SDS011;2578;51.622;7.046;2023-06-24T06:42:08;14.10;;;13.20;;
5117;SDS011;2578;51.622;7.046;2023-06-24T06:44:36;14.20;;;13.30;;
5117;SDS011;2578;51.622;7.046;2023-06-24T06:47:05;14.07;;;13.07;;
5117;SDS011;2578;51.622;7.046;2023-06-24T06:49:37;15.13;;;13.93;;
5117;SDS011;2578;51.622;7.046;2023-06-24T06:52:03;13.57;;;12.77;;
5117;SDS011;2578;51.622;7.046;2023-06-24T06:54:38;16.43;;;15.40;;
5117;SDS011;2578;51.622;7.046;2023-06-24T06:57:04;14.40;;;13.50;;
5117;SDS011;2578;51.622;7.046;2023-06-24T06:59:41;15.90;;;14.90;;
5117;SDS011;2578;51.622;7.046;2023-06-24T07:02:10;16.60;;;15.50;;
5117;SDS011;2578;51.622;7.046;2023-06-24T07:04:35;17.97;;;16.40;;
5117;SDS011;2578;51.622;7.046;2023-06-24T07:07:04;20.77;;;19.13;;
5117;SDS011;2578;51.622;7.046;2023-06-24T07:09:39;18.43;;;17.23;;
5117;SDS011;2578;51.622;7.046;2023-06-24T07:12:05;18.27;;;17.07;;
5117;SDS011;2578;51.622;7.046;2023-06-24T07:14:31;19.83;;;18.53;;
5117;SDS011;2578;51.622;7.046;2023-06-24T07:17:00;18.30;;;17.10;;
5117;SDS011;2578;51.622;7.046;2023-06-24T07:19:26;20.87;;;19.37;;
5117;SDS011;2578;51.622;7.046;2023-06-24T07:21:54;21.30;;;19.80;;
5117;SDS011;2578;51.622;7.046;2023-06-24T07:24:20;19.07;;;17.77;;
5117;SDS011;2578;51.622;7.046;2023-06-24T07:26:48;20.83;;;19.37;;
5117;SDS011;2578;51.622;7.046;2023-06-24T07:29:13;21.73;;;20.03;;
5117;SDS011;2578;51.622;7.046;2023-06-24T07:31:39;19.80;;;18.50;;
5117;SDS011;2578;51.622;7.046;2023-06-24T07:34:08;22.70;;;21.00;;
5117;SDS011;2578;51.622;7.046;2023-06-24T07:36:33;20.70;;;19.30;;
5117;SDS011;2578;51.622;7.046;2023-06-24T07:39:05;21.40;;;19.70;;
5117;SDS011;2578;51.622;7.046;2023-06-24T07:41:30;20.60;;;19.20;;
5117;SDS011;2578;51.622;7.046;2023-06-24T07:44:05;23.93;;;22.17;;
5117;SDS011;2578;51.622;7.046;2023-06-24T07:46:36;22.17;;;20.57;;
5117;SDS011;2578;51.622;7.046;2023-06-24T07:49:02;20.20;;;18.80;;
5117;SDS011;2578;51.622;7.046;2023-06-24T07:51:34;21.10;;;19.63;;
5117;SDS011;2578;51.622;7.046;2023-06-24T07:54:02;22.83;;;21.13;;
5117;SDS011;2578;51.622;7.046;2023-06-24T07:56:36;21.80;;;20.30;;
5117;SDS011;2578;51.622;7.046;2023-06-24T07:59:10;21.37;;;19.87;;
5117;SDS011;2578;51.622;7.046;2023-06-24T08:01:36;23.37;;;21.57;;
5117;SDS011;2578;51.622;7.046;2023-06-24T08:04:02;24.80;;;22.30;;
5117;SDS011;2578;51.622;7.046;2023-06-24T08:06:27;24.53;;;22.23;;
5117;SDS011;2578;51.622;7.046;2023-06-24T08:08:53;18.77;;;17.53;;
5117;SDS011;2578;51.622;7.046;2023-06-24T08:11:21;18.43;;;17.23;;
5117;SDS011;2578;51.622;7.046;2023-06-24T08:13:47;20.00;;;18.60;;
5117;SDS011;2578;51.622;7.046;2023-06-24T08:16:15;21.50;;;19.90;;
5117;SDS011;2578;51.622;7.046;2023-06-24T08:18:42;20.30;;;18.90;;
5117;SDS011;2578;51.622;7.046;2023-06-24T08:21:07;22.97;;;21.17;;
5117;SDS011;2578;51.622;7.046;2023-06-24T08:23:33;20.30;;;18.80;;
5117;SDS011;2578;51.622;7.046;2023-06-24T08:29:14;23.83;;;21.83;;
5117;SDS011;2578;51.622;7.046;2023-06-24T08:31:43;18.50;;;17.30;;
5117;SDS011;2578;51.622;7.046;2023-06-24T08:34:09;20.50;;;19.10;;
5117;SDS011;2578;51.622;7.046;2023-06-24T08:36:40;20.47;;;18.97;;
5117;SDS011;2578;51.622;7.046;2023-06-24T08:39:07;26.60;;;23.90;;
5117;SDS011;2578;51.622;7.046;2023-06-24T08:41:33;19.93;;;18.43;;
5117;SDS011;2578;51.622;7.046;2023-06-24T08:44:10;23.77;;;21.10;;
5117;SDS011;2578;51.622;7.046;2023-06-24T08:46:35;28.27;;;25.20;;
5117;SDS011;2578;51.622;7.046;2023-06-24T08:49:14;33.13;;;19.57;;
5117;SDS011;2578;51.622;7.046;2023-06-24T08:54:45;22.10;;;20.33;;
5117;SDS011;2578;51.622;7.046;2023-06-24T08:57:16;23.40;;;21.40;;
5117;SDS011;2578;51.622;7.046;2023-06-24T08:59:52;22.70;;;20.83;;
5117;SDS011;2578;51.622;7.046;2023-06-24T09:02:18;25.13;;;19.83;;
5117;SDS011;2578;51.622;7.046;2023-06-24T09:04:50;21.17;;;19.33;;
5117;SDS011;2578;51.622;7.046;2023-06-24T09:07:24;22.67;;;20.87;;
5117;SDS011;2578;51.622;7.046;2023-06-24T09:09:51;23.30;;;21.17;;
5117;SDS011;2578;51.622;7.046;2023-06-24T09:12:17;22.60;;;20.80;;
5117;SDS011;2578;51.622;7.046;2023-06-24T09:14:49;25.47;;;22.93;;
5117;SDS011;2578;51.622;7.046;2023-06-24T09:17:18;21.10;;;19.50;;
5117;SDS011;2578;51.622;7.046;2023-06-24T09:19:50;21.90;;;20.20;;
5117;SDS011;2578;51.622;7.046;2023-06-24T09:22:19;21.90;;;20.30;;
5117;SDS011;2578;51.622;7.046;2023-06-24T09:24:46;23.43;;;21.53;;
5117;SDS011;2578;51.622;7.046;2023-06-24T09:27:13;23.53;;;21.63;;
5117;SDS011;2578;51.622;7.046;2023-06-24T09:29:49;22.30;;;20.60;;
5117;SDS011;2578;51.622;7.046;2023-06-24T09:32:21;22.90;;;21.20;;
5117;SDS011;2578;51.622;7.046;2023-06-24T09:34:54;23.47;;;21.60;;
5117;SDS011;2578;51.622;7.046;2023-06-24T09:37:23;23.27;;;21.57;;
5117;SDS011;2578;51.622;7.046;2023-06-24T09:39:52;23.20;;;21.50;;
5117;SDS011;2578;51.622;7.046;2023-06-24T09:42:20;25.77;;;23.67;;
5117;SDS011;2578;51.622;7.046;2023-06-24T09:47:54;25.37;;;23.07;;
5117;SDS011;2578;51.622;7.046;2023-06-24T09:50:21;23.23;;;21.50;;
5117;SDS011;2578;51.622;7.046;2023-06-24T09:52:48;23.73;;;21.60;;
5117;SDS011;2578;51.622;7.046;2023-06-24T09:55:23;23.00;;;21.30;;
5117;SDS011;2578;51.622;7.046;2023-06-24T09:57:52;23.70;;;21.80;;
5117;SDS011;2578;51.622;7.046;2023-06-24T10:00:27;25.60;;;23.40;;
5117;SDS011;2578;51.622;7.046;2023-06-24T10:02:56;25.43;;;23.13;;
5117;SDS011;2578;51.622;7.046;2023-06-24T10:05:31;24.60;;;22.70;;
5117;SDS011;2578;51.622;7.046;2023-06-24T10:08:01;25.03;;;23.03;;
5117;SDS011;2578;51.622;7.046;2023-06-24T10:10:33;25.40;;;23.10;;
5117;SDS011;2578;51.622;7.046;2023-06-24T10:13:01;25.77;;;23.37;;
5117;SDS011;2578;51.622;7.046;2023-06-24T10:15:34;25.47;;;23.57;;
5117;SDS011;2578;51.622;7.046;2023-06-24T10:18:16;26.30;;;24.10;;
5117;SDS011;2578;51.622;7.046;2023-06-24T10:21:08;24.40;;;22.60;;
5117;SDS011;2578;51.622;7.046;2023-06-24T10:36:59;24.90;;;23.00;;
5117;SDS011;2578;51.622;7.046;2023-06-24T10:43:00;27.30;;;25.07;;
5117;SDS011;2578;51.622;7.046;2023-06-24T10:47:40;27.20;;;25.10;;
5117;SDS011;2578;51.622;7.046;2023-06-24T10:50:18;27.23;;;25.10;;
5117;SDS011;2578;51.622;7.046;2023-06-24T10:52:46;28.20;;;25.60;;
5117;SDS011;2578;51.622;7.046;2023-06-24T10:55:26;27.13;;;24.83;;
5117;SDS011;2578;51.622;7.046;2023-06-24T10:57:52;26.90;;;25.00;;
5117;SDS011;2578;51.622;7.046;2023-06-24T11:00:36;26.73;;;24.73;;
5117;SDS011;2578;51.622;7.046;2023-06-24T11:03:13;27.60;;;25.50;;
5117;SDS011;2578;51.622;7.046;2023-06-24T11:05:40;27.60;;;25.30;;
5117;SDS011;2578;51.622;7.046;2023-06-24T11:08:07;26.30;;;24.30;;
5117;SDS011;2578;51.622;7.046;2023-06-24T11:10:41;27.67;;;25.47;;
5117;SDS011;2578;51.622;7.046;2023-06-24T11:13:11;26.90;;;24.80;;
5117;SDS011;2578;51.622;7.046;2023-06-24T11:15:41;26.73;;;24.73;;
5117;SDS011;2578;51.622;7.046;2023-06-24T11:18:07;27.63;;;25.23;;
5117;SDS011;2578;51.622;7.046;2023-06-24T11:20:36;26.10;;;24.00;;
5117;SDS011;2578;51.622;7.046;2023-06-24T11:23:05;26.10;;;24.10;;
5117;SDS011;2578;51.622;7.046;2023-06-24T11:25:42;27.63;;;25.33;;
5117;SDS011;2578;51.622;7.046;2023-06-24T11:28:42;28.73;;;25.77;;
5117;SDS011;2578;51.622;7.046;2023-06-24T11:31:11;27.20;;;25.10;;
5117;SDS011;2578;51.622;7.046;2023-06-24T11:33:39;27.10;;;25.10;;
5117;SDS011;2578;51.622;7.046;2023-06-24T11:36:08;26.27;;;24.27;;
5117;SDS011;2578;51.622;7.046;2023-06-24T11:38:47;27.10;;;25.00;;
5117;SDS011;2578;51.622;7.046;2023-06-24T11:41:13;28.30;;;25.90;;
5117;SDS011;2578;51.622;7.046;2023-06-24T11:43:45;27.03;;;24.83;;
5117;SDS011;2578;51.622;7.046;2023-06-24T11:46:21;27.50;;;25.07;;
5117;SDS011;2578;51.622;7.046;2023-06-24T11:49:05;27.70;;;25.17;;
5117;SDS011;2578;51.622;7.046;2023-06-24T11:51:32;27.40;;;25.40;;
5117;SDS011;2578;51.622;7.046;2023-06-24T11:54:01;26.40;;;24.50;;
5117;SDS011;2578;51.622;7.046;2023-06-24T11:56:37;27.67;;;25.47;;
5117;SDS011;2578;51.622;7.046;2023-06-24T11:59:09;26.60;;;24.60;;
5117;SDS011;2578;51.622;7.046;2023-06-24T12:01:57;26.40;;;24.40;;
5117;SDS011;2578;51.622;7.046;2023-06-24T12:04:30;25.90;;;24.00;;
5117;SDS011;2578;51.622;7.046;2023-06-24T12:06:59;28.33;;;25.83;;
5117;SDS011;2578;51.622;7.046;2023-06-24T12:09:28;27.67;;;25.50;;
5117;SDS011;2578;51.622;7.046;2023-06-24T12:11:54;27.40;;;25.03;;
5117;SDS011;2578;51.622;7.046;2023-06-24T12:14:20;27.67;;;25.50;;
5117;SDS011;2578;51.622;7.046;2023-06-24T12:16:48;27.87;;;25.57;;
5117;SDS011;2578;51.622;7.046;2023-06-24T12:19:14;27.30;;;25.13;;
5117;SDS011;2578;51.622;7.046;2023-06-24T12:21:39;26.90;;;24.80;;
5117;SDS011;2578;51.622;7.046;2023-06-24T12:24:08;25.93;;;24.03;;
5117;SDS011;2578;51.622;7.046;2023-06-24T12:26:34;27.07;;;24.97;;
5117;SDS011;2578;51.622;7.046;2023-06-24T12:29:02;27.10;;;25.00;;
5117;SDS011;2578;51.622;7.046;2023-06-24T12:31:28;27.00;;;25.00;;
5117;SDS011;2578;51.622;7.046;2023-06-24T12:33:54;28.87;;;26.47;;
5117;SDS011;2578;51.622;7.046;2023-06-24T12:36:25;28.10;;;25.80;;
5117;SDS011;2578;51.622;7.046;2023-06-24T12:38:51;26.80;;;24.80;;
5117;SDS011;2578;51.622;7.046;2023-06-24T12:41:17;28.37;;;26.07;;
5117;SDS011;2578;51.622;7.046;2023-06-24T12:43:46;28.30;;;26.10;;
5117;SDS011;2578;51.622;7.046;2023-06-24T12:46:11;31.27;;;28.87;;
5117;SDS011;2578;51.622;7.046;2023-06-24T12:48:37;28.03;;;25.83;;
5117;SDS011;2578;51.622;7.046;2023-06-24T12:51:06;28.17;;;25.87;;
5117;SDS011;2578;51.622;7.046;2023-06-24T12:53:31;27.90;;;25.70;;
5117;SDS011;2578;51.622;7.046;2023-06-24T12:55:57;27.60;;;25.50;;
5117;SDS011;2578;51.622;7.046;2023-06-24T12:58:23;26.30;;;24.40;;
5117;SDS011;2578;51.622;7.046;2023-06-24T13:00:52;27.58;;;25.38;;
5117;SDS011;2578;51.622;7.046;2023-06-24T13:03:18;27.00;;;25.00;;
5117;SDS011;2578;51.622;7.046;2023-06-24T13:05:44;27.83;;;25.63;;
5117;SDS011;2578;51.622;7.046;2023-06-24T13:08:09;26.90;;;25.00;;
5117;SDS011;2578;51.622;7.046;2023-06-24T13:10:38;26.57;;;24.67;;
5117;SDS011;2578;51.622;7.046;2023-06-24T13:13:06;27.47;;;25.43;;
5117;SDS011;2578;51.622;7.046;2023-06-24T13:15:35;27.87;;;25.73;;
5117;SDS011;2578;51.622;7.046;2023-06-24T13:18:01;26.40;;;24.50;;
5117;SDS011;2578;51.622;7.046;2023-06-24T13:20:27;27.30;;;25.30;;
5117;SDS011;2578;51.622;7.046;2023-06-24T13:22:53;27.83;;;25.73;;
5117;SDS011;2578;51.622;7.046;2023-06-24T13:25:18;27.67;;;25.37;;
5117;SDS011;2578;51.622;7.046;2023-06-24T13:27:44;26.90;;;24.90;;
5117;SDS011;2578;51.622;7.046;2023-06-24T13:30:13;26.10;;;24.20;;
5117;SDS011;2578;51.622;7.046;2023-06-24T13:32:40;25.80;;;24.00;;
5117;SDS011;2578;51.622;7.046;2023-06-24T13:35:06;27.93;;;25.83;;
5117;SDS011;2578;51.622;7.046;2023-06-24T13:37:32;26.90;;;24.73;;
5117;SDS011;2578;51.622;7.046;2023-06-24T13:39:57;27.33;;;25.10;;
5117;SDS011;2578;51.622;7.046;2023-06-24T13:42:23;27.73;;;25.47;;
5117;SDS011;2578;51.622;7.046;2023-06-24T13:44:50;26.90;;;24.90;;
5117;SDS011;2578;51.622;7.046;2023-06-24T13:47:19;28.70;;;26.40;;
5117;SDS011;2578;51.622;7.046;2023-06-24T13:49:47;27.13;;;25.03;;
5117;SDS011;2578;51.622;7.046;2023-06-24T13:52:13;26.80;;;24.90;;
5117;SDS011;2578;51.622;7.046;2023-06-24T13:54:41;26.20;;;24.30;;
5117;SDS011;2578;51.622;7.046;2023-06-24T13:57:07;27.60;;;25.60;;
5117;SDS011;2578;51.622;7.046;2023-06-24T13:59:33;27.00;;;25.00;;
5117;SDS011;2578;51.622;7.046;2023-06-24T14:02:02;27.53;;;25.53;;
5117;SDS011;2578;51.622;7.046;2023-06-24T14:04:27;28.20;;;26.03;;
5117;SDS011;2578;51.622;7.046;2023-06-24T14:06:56;26.47;;;24.50;;
5117;SDS011;2578;51.622;7.046;2023-06-24T14:09:29;25.80;;;24.00;;
5117;SDS011;2578;51.622;7.046;2023-06-24T14:11:58;26.97;;;24.90;;
5117;SDS011;2578;51.622;7.046;2023-06-24T14:14:27;26.07;;;24.27;;
5117;SDS011;2578;51.622;7.046;2023-06-24T14:16:55;26.10;;;24.20;;
5117;SDS011;2578;51.622;7.046;2023-06-24T14:19:24;27.10;;;25.00;;
5117;SDS011;2578;51.622;7.046;2023-06-24T14:21:53;27.63;;;25.23;;
5117;SDS011;2578;51.622;7.046;2023-06-24T14:24:19;25.93;;;24.13;;
5117;SDS011;2578;51.622;7.046;2023-06-24T14:26:47;26.47;;;24.57;;
5117;SDS011;2578;51.622;7.046;2023-06-24T14:29:20;26.97;;;25.07;;
5117;SDS011;2578;51.622;7.046;2023-06-24T14:31:51;26.80;;;24.90;;
5117;SDS011;2578;51.622;7.046;2023-06-24T14:34:17;26.20;;;24.40;;
5117;SDS011;2578;51.622;7.046;2023-06-24T14:36:43;26.20;;;24.40;;
5117;SDS011;2578;51.622;7.046;2023-06-24T14:39:17;26.43;;;24.53;;
5117;SDS011;2578;51.622;7.046;2023-06-24T14:41:47;27.50;;;25.60;;
5117;SDS011;2578;51.622;7.046;2023-06-24T14:44:12;27.23;;;25.13;;
5117;SDS011;2578;51.622;7.046;2023-06-24T14:46:41;27.40;;;25.50;;
5117;SDS011;2578;51.622;7.046;2023-06-24T14:49:07;27.33;;;25.30;;
5117;SDS011;2578;51.622;7.046;2023-06-24T14:51:33;26.90;;;24.90;;
5117;SDS011;2578;51.622;7.046;2023-06-24T14:54:01;26.40;;;24.40;;
5117;SDS011;2578;51.622;7.046;2023-06-24T14:56:37;25.60;;;23.70;;
5117;SDS011;2578;51.622;7.046;2023-06-24T14:59:03;25.30;;;23.40;;
5117;SDS011;2578;51.622;7.046;2023-06-24T15:01:34;26.30;;;24.30;;
5117;SDS011;2578;51.622;7.046;2023-06-24T15:04:03;25.90;;;24.00;;
5117;SDS011;2578;51.622;7.046;2023-06-24T15:06:31;26.73;;;24.63;;
5117;SDS011;2578;51.622;7.046;2023-06-24T15:08:57;25.60;;;23.70;;
5117;SDS011;2578;51.622;7.046;2023-06-24T15:11:28;25.47;;;23.53;;
5117;SDS011;2578;51.622;7.046;2023-06-24T15:13:54;26.20;;;24.20;;
5117;SDS011;2578;51.622;7.046;2023-06-24T15:16:19;26.10;;;24.10;;
5117;SDS011;2578;51.622;7.046;2023-06-24T15:18:50;25.20;;;23.30;;
5117;SDS011;2578;51.622;7.046;2023-06-24T15:21:16;25.30;;;23.40;;
5117;SDS011;2578;51.622;7.046;2023-06-24T15:23:42;26.23;;;24.13;;
5117;SDS011;2578;51.622;7.046;2023-06-24T15:26:13;29.10;;;26.90;;
5117;SDS011;2578;51.622;7.046;2023-06-24T15:29:08;28.03;;;25.93;;
5117;SDS011;2578;51.622;7.046;2023-06-24T15:31:37;29.23;;;26.40;;
5117;SDS011;2578;51.622;7.046;2023-06-24T15:34:05;26.90;;;24.90;;
5117;SDS011;2578;51.622;7.046;2023-06-24T15:36:31;25.63;;;23.73;;
5117;SDS011;2578;51.622;7.046;2023-06-24T15:38:59;27.80;;;25.70;;
5117;SDS011;2578;51.622;7.046;2023-06-24T15:41:35;25.80;;;23.90;;
5117;SDS011;2578;51.622;7.046;2023-06-24T15:44:03;25.60;;;23.70;;
5117;SDS011;2578;51.622;7.046;2023-06-24T15:46:29;25.63;;;23.77;;
5117;SDS011;2578;51.622;7.046;2023-06-24T15:48:55;25.77;;;23.87;;